createdAt,value
2023-02-16T00:02:55.873Z,98291.88
2023-02-16T00:05:57.509Z,98286.38
2023-02-16T00:08:59.167Z,98286.56
2023-02-16T00:12:19.499Z,98287.22
2023-02-16T00:15:21.147Z,98282.00
2023-02-16T00:18:22.648Z,98283.41
2023-02-16T00:21:24.235Z,98289.66
2023-02-16T00:24:27.359Z,98276.34
2023-02-16T00:27:28.883Z,98273.94
2023-02-16T00:30:30.454Z,98275.69
2023-02-16T00:33:31.927Z,98272.72
2023-02-16T00:36:33.410Z,98265.56
2023-02-16T00:39:35.350Z,98266.22
2023-02-16T00:42:37.585Z,98262.13
2023-02-16T00:45:39.150Z,98270.69
2023-02-16T00:48:40.614Z,98265.00
2023-02-16T00:51:43.126Z,98268.97
2023-02-16T00:54:45.156Z,98270.72
2023-02-16T00:58:14.903Z,98260.25
2023-02-16T01:01:19.944Z,98261.06
2023-02-16T01:04:23.851Z,98267.50
2023-02-16T01:07:44.141Z,98263.69
2023-02-16T01:11:05.226Z,98261.66
2023-02-16T01:14:12.253Z,98259.81
2023-02-16T01:17:13.732Z,98254.97
2023-02-16T01:20:17.611Z,98250.34
2023-02-16T01:23:19.247Z,98246.16
2023-02-16T01:26:21.461Z,98248.03
2023-02-16T01:29:23.015Z,98242.72
2023-02-16T01:32:24.807Z,98234.72
2023-02-16T01:35:33.820Z,98235.66
2023-02-16T01:38:35.420Z,98241.59
2023-02-16T01:42:01.284Z,98241.78
2023-02-16T01:45:13.126Z,98235.81
2023-02-16T01:48:24.868Z,98234.06
2023-02-16T01:51:34.339Z,98234.72
2023-02-16T01:54:54.315Z,98231.44
2023-02-16T01:58:00.524Z,98228.00
2023-02-16T02:01:02.238Z,98231.75
2023-02-16T02:04:43.999Z,98233.22
2023-02-16T02:08:00.730Z,98230.06
2023-02-16T02:11:02.737Z,98223.72
2023-02-16T02:14:32.993Z,98221.78
2023-02-16T02:17:34.810Z,98230.34
2023-02-16T02:21:27.012Z,98224.13
2023-02-16T02:25:05.857Z,98222.91
2023-02-16T02:28:27.548Z,98220.69
2023-02-16T02:31:49.129Z,98233.69
2023-02-16T02:35:03.622Z,98217.13
2023-02-16T02:38:31.704Z,98227.84
2023-02-16T02:42:01.379Z,98211.91
2023-02-16T02:45:09.810Z,98225.59
2023-02-16T02:48:11.372Z,98218.91
2023-02-16T02:51:30.306Z,98236.22
2023-02-16T02:54:57.665Z,98222.06
2023-02-16T02:58:17.832Z,98229.13
2023-02-16T03:01:22.061Z,98227.44
2023-02-16T03:04:25.389Z,98228.19
2023-02-16T03:07:46.529Z,98225.59
2023-02-16T03:11:29.474Z,98222.16
2023-02-16T03:14:35.152Z,98217.03
2023-02-16T03:17:57.374Z,98212.94
2023-02-16T03:21:18.969Z,98222.97
2023-02-16T03:24:46.346Z,98217.91
2023-02-16T03:28:06.413Z,98219.28
2023-02-16T03:31:12.189Z,98215.66
2023-02-16T03:34:15.378Z,98221.13
2023-02-16T03:37:16.916Z,98220.38
2023-02-16T03:40:32.785Z,98230.78
2023-02-16T03:43:34.354Z,98218.63
2023-02-16T03:46:35.945Z,98221.03
2023-02-16T03:49:37.462Z,98226.63
2023-02-16T03:52:38.981Z,98219.72
2023-02-16T03:55:46.205Z,98225.41
2023-02-16T03:58:47.710Z,98230.44
2023-02-16T04:01:49.150Z,98228.00
2023-02-16T04:04:50.759Z,98219.53
2023-02-16T04:07:52.354Z,98221.41
2023-02-16T04:10:57.539Z,98220.09
2023-02-16T04:13:59.164Z,98225.19
2023-02-16T04:17:00.687Z,98219.75
2023-02-16T04:20:02.774Z,98222.59
2023-02-16T04:23:04.690Z,98221.94
2023-02-16T04:26:06.183Z,98221.03
2023-02-16T04:29:07.738Z,98237.38
2023-02-16T04:32:09.394Z,98236.00
2023-02-16T04:35:11.499Z,98234.69
2023-02-16T04:38:13.020Z,98235.34
2023-02-16T04:41:14.465Z,98229.13
2023-02-16T04:44:15.997Z,98234.03
2023-02-16T04:47:18.108Z,98233.06
2023-02-16T04:50:19.605Z,98241.91
2023-02-16T04:53:21.188Z,98239.28
2023-02-16T04:56:22.669Z,98232.22
2023-02-16T04:59:24.171Z,98239.47
2023-02-16T05:02:25.611Z,98245.88
2023-02-16T05:05:27.126Z,98235.38
2023-02-16T05:08:30.081Z,98248.53
2023-02-16T05:11:50.362Z,98238.50
2023-02-16T05:14:51.842Z,98248.25
2023-02-16T05:17:53.461Z,98248.81
2023-02-16T05:21:13.340Z,98246.31
2023-02-16T05:24:14.781Z,98244.91
2023-02-16T05:27:22.623Z,98250.19
2023-02-16T05:30:24.115Z,98244.41
2023-02-16T05:33:25.626Z,98245.38
2023-02-16T05:36:27.175Z,98242.94
2023-02-16T05:39:28.933Z,98244.88
2023-02-16T05:42:30.436Z,98245.13
2023-02-16T05:45:32.068Z,98249.50
2023-02-16T05:48:33.747Z,98251.31
2023-02-16T05:51:35.844Z,98247.81
2023-02-16T05:54:37.447Z,98256.03
2023-02-16T05:57:38.951Z,98256.47
2023-02-16T06:00:40.425Z,98252.84
2023-02-16T06:03:42.357Z,98265.69
2023-02-16T06:06:44.169Z,98255.22
2023-02-16T06:09:45.696Z,98257.38
2023-02-16T06:12:47.178Z,98262.75
2023-02-16T06:15:52.253Z,98267.69
2023-02-16T06:18:54.364Z,98268.63
2023-02-16T06:21:55.880Z,98275.16
2023-02-16T06:24:57.417Z,98278.50
2023-02-16T06:27:58.988Z,98285.91
2023-02-16T06:31:00.564Z,98284.97
2023-02-16T06:34:03.687Z,98276.41
2023-02-16T06:37:05.202Z,98280.28
2023-02-16T06:40:09.898Z,98288.16
2023-02-16T06:43:11.323Z,98291.81
2023-02-16T06:46:12.817Z,98288.22
2023-02-16T06:49:20.124Z,98291.56
2023-02-16T06:52:21.970Z,98281.09
2023-02-16T06:55:23.438Z,98293.81
2023-02-16T06:58:24.928Z,98285.28
2023-02-16T07:01:26.463Z,98303.31
2023-02-16T07:04:28.049Z,98291.72
2023-02-16T07:07:29.659Z,98301.84
2023-02-16T07:10:47.490Z,98297.84
2023-02-16T07:13:50.854Z,98295.91
2023-02-16T07:16:52.333Z,98298.56
2023-02-16T07:19:53.951Z,98302.31
2023-02-16T07:22:55.444Z,98305.91
2023-02-16T07:25:56.975Z,98307.03
2023-02-16T07:28:58.695Z,98309.28
2023-02-16T07:32:00.244Z,98315.97
2023-02-16T07:35:01.877Z,98314.78
2023-02-16T07:38:05.104Z,98316.75
2023-02-16T07:41:09.472Z,98322.63
2023-02-16T07:44:11.445Z,98325.75
2023-02-16T07:47:16.123Z,98320.78
2023-02-16T07:50:17.797Z,98328.22
2023-02-16T07:53:19.373Z,98330.81
2023-02-16T07:56:29.038Z,98337.56
2023-02-16T07:59:30.798Z,98344.34
2023-02-16T08:02:32.359Z,98345.25
2023-02-16T08:05:34.397Z,98336.91
2023-02-16T08:08:37.289Z,98338.63
2023-02-16T08:11:38.832Z,98346.06
2023-02-16T08:14:40.821Z,98343.03
2023-02-16T08:17:43.476Z,98341.19
2023-02-16T08:21:02.749Z,98340.19
2023-02-16T08:24:08.240Z,98342.31
2023-02-16T08:27:09.640Z,98338.44
2023-02-16T08:30:13.774Z,98341.88
2023-02-16T08:33:15.225Z,98337.06
2023-02-16T08:36:25.068Z,98331.78
2023-02-16T08:39:31.808Z,98315.22
2023-02-16T08:42:33.306Z,98320.63
2023-02-16T08:45:34.827Z,98317.00
2023-02-16T08:48:36.497Z,98310.16
2023-02-16T08:51:44.247Z,98315.13
2023-02-16T08:54:45.671Z,98316.28
2023-02-16T08:57:47.211Z,98317.03
2023-02-16T09:00:49.769Z,98323.75
2023-02-16T09:03:52.293Z,98320.16
2023-02-16T09:06:53.862Z,98325.91
2023-02-16T09:09:55.347Z,98321.25
2023-02-16T09:12:58.092Z,98318.19
2023-02-16T09:16:09.578Z,98316.63
2023-02-16T09:19:20.372Z,98315.66
2023-02-16T09:22:22.447Z,98326.13
2023-02-16T09:25:25.519Z,98335.63
2023-02-16T09:28:27.074Z,98328.75
2023-02-16T09:31:31.049Z,98331.16
2023-02-16T09:34:32.608Z,98330.56
2023-02-16T09:37:34.098Z,98326.16
2023-02-16T09:40:36.878Z,98326.66
2023-02-16T09:44:03.226Z,98326.75
2023-02-16T09:47:11.574Z,98327.78
2023-02-16T09:50:50.225Z,98315.19
2023-02-16T09:53:55.199Z,98304.56
2023-02-16T09:57:02.691Z,98314.03
2023-02-16T10:00:32.655Z,98316.59
2023-02-16T10:03:52.901Z,98315.34
2023-02-16T10:07:14.694Z,98321.03
2023-02-16T10:10:23.611Z,98320.34
2023-02-16T10:13:30.136Z,98323.56
2023-02-16T10:16:41.277Z,98323.50
2023-02-16T10:20:12.146Z,98322.34
2023-02-16T10:23:48.357Z,98315.22
2023-02-16T10:27:14.306Z,98313.50
2023-02-16T10:30:17.996Z,98309.44
2023-02-16T10:33:31.821Z,98303.41
2023-02-16T10:36:45.538Z,98299.38
2023-02-16T10:40:13.135Z,98300.09
2023-02-16T10:43:34.293Z,98299.44
2023-02-16T10:46:40.384Z,98303.50
2023-02-16T10:49:41.988Z,98298.16
2023-02-16T10:52:44.051Z,98305.72
2023-02-16T10:55:45.757Z,98294.91
2023-02-16T10:58:47.828Z,98289.50
2023-02-16T11:01:54.157Z,98289.44
2023-02-16T11:04:58.675Z,98283.75
2023-02-16T11:08:01.661Z,98280.16
2023-02-16T11:11:09.968Z,98276.13
2023-02-16T11:14:24.878Z,98282.47
2023-02-16T11:17:26.943Z,98276.88
2023-02-16T11:20:34.681Z,98269.94
2023-02-16T11:23:43.512Z,98266.03
2023-02-16T11:26:59.712Z,98263.47
2023-02-16T11:30:22.331Z,98262.19
2023-02-16T11:33:27.601Z,98251.88
2023-02-16T11:36:41.929Z,98251.72
2023-02-16T11:39:57.579Z,98254.50
2023-02-16T11:43:01.278Z,98248.47
2023-02-16T11:46:11.763Z,98243.75
2023-02-16T11:49:42.520Z,98234.44
2023-02-16T11:52:44.993Z,98232.16
2023-02-16T11:55:48.547Z,98229.06
2023-02-16T11:59:05.323Z,98228.50
2023-02-16T12:02:09.688Z,98229.06
2023-02-16T12:05:32.488Z,98231.66
2023-02-16T12:09:04.976Z,98213.34
2023-02-16T12:12:14.944Z,98211.50
2023-02-16T12:15:54.770Z,98217.22
2023-02-16T12:19:23.167Z,98214.13
2023-02-16T12:22:48.134Z,98220.56
2023-02-16T12:25:59.493Z,98210.50
2023-02-16T12:29:11.150Z,98211.59
2023-02-16T12:32:37.370Z,98213.13
2023-02-16T12:35:56.845Z,98203.75
2023-02-16T12:39:16.880Z,98200.22
2023-02-16T12:42:29.578Z,98195.91
2023-02-16T12:45:36.629Z,98203.44
2023-02-16T12:48:59.515Z,98202.91
2023-02-16T12:52:18.347Z,98190.72
2023-02-16T12:55:44.504Z,98209.03
2023-02-16T12:58:53.349Z,98198.63
2023-02-16T13:01:56.420Z,98193.38
2023-02-16T13:05:17.959Z,98208.00
2023-02-16T13:08:39.108Z,98202.63
2023-02-16T13:11:49.790Z,98194.75
2023-02-16T13:15:02.124Z,98201.34
2023-02-16T13:18:20.956Z,98195.91
2023-02-16T13:22:11.072Z,98185.63
2023-02-16T13:25:53.875Z,98191.31
2023-02-16T13:29:29.425Z,98184.94
2023-02-16T13:32:41.020Z,98177.94
2023-02-16T13:36:10.485Z,98176.47
2023-02-16T13:39:30.838Z,98173.31
2023-02-16T13:42:57.837Z,98174.06
2023-02-16T13:46:03.891Z,98173.13
2023-02-16T13:49:06.650Z,98176.72
2023-02-16T13:52:10.633Z,98165.47
2023-02-16T13:55:30.063Z,98165.38
2023-02-16T13:58:32.658Z,98166.28
2023-02-16T14:01:42.964Z,98164.13
2023-02-16T14:04:50.359Z,98165.84
2023-02-16T14:08:11.353Z,98169.25
2023-02-16T14:11:12.997Z,98164.94
2023-02-16T14:14:43.441Z,98169.50
2023-02-16T14:17:45.928Z,98167.09
2023-02-16T14:21:00.961Z,98162.13
2023-02-16T14:24:04.503Z,98159.84
2023-02-16T14:27:10.720Z,98163.47
2023-02-16T14:30:49.829Z,98160.34
2023-02-16T14:33:54.481Z,98159.50
2023-02-16T14:37:09.281Z,98168.00
2023-02-16T14:40:21.153Z,98151.59
2023-02-16T14:43:28.283Z,98157.31
2023-02-16T14:46:57.393Z,98161.06
2023-02-16T14:49:59.187Z,98156.09
2023-02-16T14:53:17.491Z,98162.97
2023-02-16T14:56:40.403Z,98163.88
2023-02-16T14:59:52.583Z,98167.03
2023-02-16T15:03:00.420Z,98171.25
2023-02-16T15:06:06.305Z,98167.41
2023-02-16T15:09:23.374Z,98168.81
2023-02-16T15:12:32.662Z,98163.97
2023-02-16T15:15:49.749Z,98164.59
2023-02-16T15:18:55.829Z,98159.81
2023-02-16T15:22:21.435Z,98163.03
2023-02-16T15:25:34.887Z,98146.44
2023-02-16T15:28:40.849Z,98140.00
2023-02-16T15:31:44.093Z,98148.28
2023-02-16T15:34:46.350Z,98145.47
2023-02-16T15:37:47.892Z,98146.97
2023-02-16T15:40:55.240Z,98138.66
2023-02-16T15:43:57.687Z,98144.63
2023-02-16T15:47:10.483Z,98138.47
2023-02-16T15:50:14.245Z,98131.16
2023-02-16T15:53:23.750Z,98130.34
2023-02-16T15:56:34.136Z,98119.41
2023-02-16T15:59:39.483Z,98118.47
2023-02-16T16:02:49.900Z,98121.84
2023-02-16T16:05:59.582Z,98124.16
2023-02-16T16:09:02.236Z,98124.16
2023-02-16T16:12:06.983Z,98130.81
2023-02-16T16:15:17.513Z,98132.81
2023-02-16T16:18:37.340Z,98133.47
2023-02-16T16:21:47.624Z,98138.00
2023-02-16T16:24:49.210Z,98139.41
2023-02-16T16:27:50.749Z,98143.75
2023-02-16T16:31:10.978Z,98135.47
2023-02-16T16:34:32.016Z,98141.41
2023-02-16T16:37:36.415Z,98139.44
2023-02-16T16:40:39.481Z,98143.06
2023-02-16T16:43:53.965Z,98149.03
2023-02-16T16:46:55.731Z,98142.22
2023-02-16T16:50:14.554Z,98145.38
2023-02-16T16:53:27.990Z,98147.84
2023-02-16T16:56:31.258Z,98152.63
2023-02-16T16:59:32.768Z,98157.72
2023-02-16T17:02:34.276Z,98154.41
2023-02-16T17:05:38.195Z,98145.28
2023-02-16T17:08:41.592Z,98145.59
2023-02-16T17:11:43.116Z,98158.13
2023-02-16T17:14:44.767Z,98153.94
2023-02-16T17:17:46.294Z,98154.84
2023-02-16T17:20:48.692Z,98155.44
2023-02-16T17:23:53.343Z,98147.53
2023-02-16T17:26:55.101Z,98157.16
2023-02-16T17:29:56.787Z,98152.28
2023-02-16T17:32:58.837Z,98149.19
2023-02-16T17:36:03.523Z,98151.09
2023-02-16T17:39:05.194Z,98155.03
2023-02-16T17:42:11.587Z,98153.25
2023-02-16T17:45:15.615Z,98167.47
2023-02-16T17:48:28.196Z,98168.97
2023-02-16T17:51:32.130Z,98175.69
2023-02-16T17:54:33.617Z,98178.44
2023-02-16T17:57:35.528Z,98178.66
2023-02-16T18:00:38.298Z,98184.13
2023-02-16T18:03:39.957Z,98188.22
2023-02-16T18:06:41.477Z,98188.66
2023-02-16T18:09:43.069Z,98194.78
2023-02-16T18:12:44.690Z,98197.41
2023-02-16T18:15:48.908Z,98198.97
2023-02-16T18:18:50.419Z,98193.63
2023-02-16T18:21:51.925Z,98196.25
2023-02-16T18:24:53.370Z,98193.75
2023-02-16T18:27:54.845Z,98188.56
2023-02-16T18:30:56.926Z,98193.41
2023-02-16T18:33:58.829Z,98190.25
2023-02-16T18:37:00.734Z,98197.38
2023-02-16T18:40:02.744Z,98196.84
2023-02-16T18:43:05.931Z,98201.88
2023-02-16T18:46:08.478Z,98206.09
2023-02-16T18:49:10.005Z,98201.69
2023-02-16T18:52:11.882Z,98200.88
2023-02-16T18:55:13.756Z,98197.28
2023-02-16T18:58:15.662Z,98205.34
2023-02-16T19:01:30.625Z,98201.19
2023-02-16T19:04:32.385Z,98208.16
2023-02-16T19:07:33.961Z,98209.56
2023-02-16T19:10:35.514Z,98208.69
2023-02-16T19:13:36.992Z,98214.13
2023-02-16T19:16:39.472Z,98220.34
2023-02-16T19:19:41.330Z,98216.63
2023-02-16T19:22:42.820Z,98216.91
2023-02-16T19:25:44.291Z,98214.81
2023-02-16T19:28:46.047Z,98220.09
2023-02-16T19:31:47.774Z,98213.25
2023-02-16T19:34:49.415Z,98214.13
2023-02-16T19:37:51.668Z,98221.91
2023-02-16T19:40:53.148Z,98215.63
2023-02-16T19:43:55.118Z,98207.47
2023-02-16T19:46:56.762Z,98219.13
2023-02-16T19:49:58.276Z,98216.09
2023-02-16T19:52:59.839Z,98217.06
2023-02-16T19:56:05.135Z,98216.22
2023-02-16T19:59:07.980Z,98212.06
2023-02-16T20:02:11.918Z,98221.34
2023-02-16T20:05:13.611Z,98222.72
2023-02-16T20:08:15.366Z,98225.63
2023-02-16T20:11:18.395Z,98222.81
2023-02-16T20:14:19.946Z,98227.41
2023-02-16T20:17:21.412Z,98228.38
2023-02-16T20:20:23.749Z,98220.47
2023-02-16T20:23:25.256Z,98227.00
2023-02-16T20:26:30.069Z,98223.47
2023-02-16T20:29:32.553Z,98214.03
2023-02-16T20:32:34.432Z,98224.09
2023-02-16T20:35:36.059Z,98222.00
2023-02-16T20:38:37.926Z,98221.25
2023-02-16T20:41:39.449Z,98217.50
2023-02-16T20:44:40.885Z,98215.66
2023-02-16T20:47:42.478Z,98206.09
2023-02-16T20:50:43.978Z,98218.75
2023-02-16T20:53:45.800Z,98221.22
2023-02-16T20:56:47.266Z,98224.78
2023-02-16T20:59:48.883Z,98229.78
2023-02-16T21:02:50.992Z,98223.47
2023-02-16T21:05:53.938Z,98222.56
2023-02-16T21:08:56.161Z,98221.25
2023-02-16T21:11:57.694Z,98226.72
2023-02-16T21:14:59.190Z,98220.44
2023-02-16T21:18:00.809Z,98225.41
2023-02-16T21:21:03.449Z,98227.81
2023-02-16T21:24:05.208Z,98223.50
2023-02-16T21:27:07.037Z,98214.41
2023-02-16T21:30:09.591Z,98219.63
2023-02-16T21:33:11.042Z,98216.28
2023-02-16T21:36:19.218Z,98214.75
2023-02-16T21:39:42.018Z,98203.16
2023-02-16T21:42:43.442Z,98204.81
2023-02-16T21:45:44.978Z,98211.41
2023-02-16T21:48:47.224Z,98195.25
2023-02-16T21:51:49.401Z,98190.59
2023-02-16T21:55:09.387Z,98188.84
2023-02-16T21:58:11.163Z,98196.97
2023-02-16T22:01:13.661Z,98194.88
2023-02-16T22:04:18.268Z,98190.88
2023-02-16T22:07:19.902Z,98199.53
2023-02-16T22:10:21.798Z,98184.81
2023-02-16T22:13:23.262Z,98189.19
2023-02-16T22:16:26.560Z,98193.53
2023-02-16T22:19:28.151Z,98186.09
2023-02-16T22:22:29.591Z,98187.88
2023-02-16T22:25:31.035Z,98199.34
2023-02-16T22:28:33.453Z,98177.66
2023-02-16T22:31:36.256Z,98187.16
2023-02-16T22:34:38.013Z,98182.75
2023-02-16T22:37:39.546Z,98184.44
2023-02-16T22:40:41.034Z,98186.78
2023-02-16T22:43:43.098Z,98187.09
2023-02-16T22:46:44.659Z,98197.16
2023-02-16T22:49:46.218Z,98187.72
2023-02-16T22:52:47.669Z,98193.50
2023-02-16T22:55:49.167Z,98188.91
2023-02-16T22:58:50.641Z,98180.28
2023-02-16T23:01:52.120Z,98186.81
2023-02-16T23:04:56.441Z,98202.38
2023-02-16T23:07:57.969Z,98191.34
2023-02-16T23:11:04.209Z,98193.03
2023-02-16T23:14:06.685Z,98193.03
2023-02-16T23:17:08.221Z,98194.16
2023-02-16T23:20:10.620Z,98197.16
2023-02-16T23:23:12.063Z,98192.03
2023-02-16T23:26:13.968Z,98187.56
2023-02-16T23:29:15.588Z,98194.00
2023-02-16T23:32:17.066Z,98191.19
2023-02-16T23:35:18.551Z,98182.78
2023-02-16T23:38:20.598Z,98188.75
2023-02-16T23:41:22.110Z,98175.50
2023-02-16T23:44:23.650Z,98187.91
2023-02-16T23:47:25.593Z,98179.28
2023-02-16T23:50:27.145Z,98189.88
2023-02-16T23:53:28.906Z,98182.78
2023-02-16T23:56:30.490Z,98190.03
2023-02-16T23:59:32.134Z,98182.91
